Time;durP1;ratioP1;P1;durP2;ratioP2;P2;SDS_P1;SDS_P2;PMS_P1;PMS_P2;Temp;Humidity;BMP_temperature;BMP_pressure;BME280_temperature;BME280_humidity;BME280_pressure;Samples;Min_cycle;Max_cycle;Signal;HPM_P1;HPM_P2
2021/01/26 00:00:19;;;;;;;2.92;1.10;;;14.40;63.10;;;;;;4992627;28;20076;-47
2021/01/26 00:02:46;;;;;;;3.28;0.93;;;14.40;63.00;;;;;;4992468;28;20041;-47
2021/01/26 00:05:12;;;;;;;1.52;0.80;;;14.20;63.00;;;;;;4992514;28;20025;-47
2021/01/26 00:07:38;;;;;;;1.70;0.60;;;14.40;63.10;;;;;;4994112;28;20186;-47
2021/01/26 00:10:06;;;;;;;4.60;1.00;;;14.30;62.90;;;;;;4992591;28;20113;-48
2021/01/26 00:12:32;;;;;;;2.90;0.80;;;14.40;62.90;;;;;;4975068;28;20025;-47
2021/01/26 00:14:58;;;;;;;3.90;1.05;;;14.30;62.80;;;;;;4992538;28;20027;-47
2021/01/26 00:17:23;;;;;;;3.25;1.35;;;14.30;62.60;;;;;;4992458;28;20094;-48
2021/01/26 00:19:49;;;;;;;3.75;1.05;;;14.50;82.20;;;;;;4992679;28;20101;-48
2021/01/26 00:22:15;;;;;;;3.08;1.08;;;14.30;62.70;;;;;;4992544;28;20562;-47
2021/01/26 00:24:40;;;;;;;2.42;1.00;;;14.30;62.70;;;;;;4992684;28;20019;-47
2021/01/26 00:27:06;;;;;;;2.35;0.90;;;14.30;62.70;;;;;;4992327;28;20664;-48
2021/01/26 00:29:31;;;;;;;4.10;0.90;;;14.30;62.80;;;;;;4992361;28;20022;-47
2021/01/26 00:31:57;;;;;;;4.18;1.05;;;14.20;62.70;;;;;;4992268;28;20030;-47
2021/01/26 00:34:23;;;;;;;2.75;0.95;;;14.20;62.70;;;;;;4992676;28;20097;-49
2021/01/26 00:36:48;;;;;;;4.13;1.00;;;14.20;62.70;;;;;;4992363;28;20046;-46
2021/01/26 00:39:20;;;;;;;1.85;0.70;;;14.20;62.70;;;;;;4975355;28;20023;-47
2021/01/26 00:41:46;;;;;;;5.47;1.20;;;14.20;62.70;;;;;;4992331;28;20038;-48
2021/01/26 00:44:11;;;;;;;2.88;0.63;;;14.20;62.70;;;;;;4992354;28;20058;-48
2021/01/26 00:46:37;;;;;;;1.70;1.00;;;14.20;62.60;;;;;;4992265;28;20027;-48
2021/01/26 00:49:03;;;;;;;2.25;0.77;;;14.10;62.60;;;;;;4992452;28;20039;-49
2021/01/26 00:51:28;;;;;;;3.15;1.08;;;14.10;62.70;;;;;;4992458;28;20373;-47
2021/01/26 00:53:54;;;;;;;3.45;0.77;;;13.90;62.50;;;;;;4992492;28;20167;-47
2021/01/26 00:56:20;;;;;;;3.10;0.90;;;14.10;62.60;;;;;;4992175;28;20526;-48
2021/01/26 00:58:45;;;;;;;1.90;0.80;;;14.10;62.70;;;;;;4995414;28;20023;-48
2021/01/26 01:01:11;;;;;;;2.92;0.85;;;14.00;62.40;;;;;;4995920;28;20030;-48
2021/01/26 01:03:37;;;;;;;5.53;1.10;;;14.10;62.50;;;;;;4995726;28;20052;-47
2021/01/26 01:06:03;;;;;;;1.88;1.10;;;14.20;62.50;;;;;;4996814;28;20168;-48
2021/01/26 01:08:29;;;;;;;2.30;0.82;;;14.10;62.40;;;;;;4995487;28;20122;-48
2021/01/26 01:10:54;;;;;;;2.55;0.80;;;14.10;62.40;;;;;;4995545;28;20105;-47
2021/01/26 01:13:20;;;;;;;5.32;1.08;;;13.80;62.20;;;;;;4995817;28;20057;-47
2021/01/26 01:15:46;;;;;;;1.95;0.70;;;14.10;62.40;;;;;;4995464;28;20380;-47
2021/01/26 01:18:12;;;;;;;3.35;1.00;;;13.80;62.30;;;;;;4995495;28;20081;-51
2021/01/26 01:20:38;;;;;;;4.60;1.05;;;14.00;62.40;;;;;;4995380;28;20022;-48
2021/01/26 01:23:04;;;;;;;3.55;1.50;;;14.00;62.40;;;;;;4995219;28;20026;-47
2021/01/26 01:25:30;;;;;;;2.75;0.93;;;14.00;62.30;;;;;;4995373;28;20030;-47
2021/01/26 01:27:56;;;;;;;2.42;1.42;;;14.00;62.40;;;;;;4995405;28;20027;-49
2021/01/26 01:30:32;;;;;;;3.85;0.70;;;13.90;62.30;;;;;;4995485;28;20461;-46
2021/01/26 01:32:59;;;;;;;1.92;0.88;;;14.00;62.40;;;;;;4995183;28;20516;-48
2021/01/26 01:35:25;;;;;;;2.78;0.88;;;14.00;62.50;;;;;;4995120;28;20041;-47
2021/01/26 01:37:51;;;;;;;1.75;1.05;;;13.90;62.40;;;;;;4995305;28;20019;-48
2021/01/26 01:40:28;;;;;;;4.30;1.15;;;13.90;62.30;;;;;;4995009;28;20073;-47
2021/01/26 01:42:54;;;;;;;2.33;0.85;;;13.90;62.30;;;;;;4994963;28;20015;-47
2021/01/26 01:45:21;;;;;;;2.85;1.00;;;13.90;62.30;;;;;;4994801;28;20473;-46
2021/01/26 01:47:55;;;;;;;4.10;1.27;;;13.90;62.10;;;;;;4994929;28;20034;-47
2021/01/26 01:50:34;;;;;;;3.50;1.08;;;13.90;62.20;;;;;;4994775;28;20027;-48
2021/01/26 01:53:15;;;;;;;4.38;1.08;;;13.90;62.20;;;;;;4994742;28;20509;-47
2021/01/26 01:55:51;;;;;;;3.33;0.98;;;13.90;62.20;;;;;;4994663;28;20029;-48
2021/01/26 01:58:21;;;;;;;1.65;0.75;;;13.80;62.20;;;;;;4994994;28;20404;-48
2021/01/26 02:00:58;;;;;;;2.10;0.75;;;13.80;62.20;;;;;;4994742;28;20037;-48
2021/01/26 02:03:27;;;;;;;4.00;0.90;;;13.80;62.20;;;;;;4994921;28;20105;-48
2021/01/26 02:05:55;;;;;;;2.08;0.80;;;13.80;62.20;;;;;;4994446;28;20026;-47
2021/01/26 02:08:58;;;;;;;3.63;0.82;;;13.80;62.20;;;;;;4976902;28;20050;-47
2021/01/26 02:11:23;;;;;;;2.25;1.00;;;13.80;62.20;;;;;;4994823;28;20239;-47
2021/01/26 02:13:50;;;;;;;3.75;0.85;;;14.20;63.10;;;;;;4994660;28;20568;-47
2021/01/26 02:16:33;;;;;;;1.92;0.70;;;13.80;62.30;;;;;;4994705;28;20030;-47
2021/01/26 02:19:19;;;;;;;2.47;0.93;;;13.80;62.30;;;;;;4994581;28;20077;-48
2021/01/26 02:22:40;;;;;;;2.67;0.88;;;13.80;62.30;;;;;;4994494;28;20030;-47
2021/01/26 02:25:20;;;;;;;3.63;0.82;;;13.80;62.20;;;;;;4888224;29;20119;-47
2021/01/26 02:28:04;;;;;;;2.53;0.60;;;13.80;62.30;;;;;;4994190;28;20030;-49
2021/01/26 02:30:48;;;;;;;4.10;0.90;;;13.70;62.20;;;;;;4994129;28;20078;-48
2021/01/26 02:33:51;;;;;;;2.75;0.90;;;13.70;62.20;;;;;;4994088;28;20500;-49
2021/01/26 02:36:25;;;;;;;1.30;0.85;;;13.70;62.20;;;;;;4994272;28;20023;-48
2021/01/26 02:39:00;;;;;;;4.10;1.05;;;13.70;62.30;;;;;;4994246;28;20030;-47
2021/01/26 02:41:34;;;;;;;2.83;0.90;;;13.70;62.20;;;;;;4994010;28;20033;-47
2021/01/26 02:44:05;;;;;;;2.10;1.20;;;13.50;62.10;;;;;;4993945;28;20035;-47
2021/01/26 02:46:30;;;;;;;;;;;13.70;62.30;;;;;;4994395;28;20559;-47
2021/01/26 02:49:16;;;;;;;3.50;1.42;;;13.70;62.20;;;;;;4993752;28;19914;-47
2021/01/26 02:52:06;;;;;;;3.03;0.80;;;13.70;62.20;;;;;;4993854;28;20029;-48
2021/01/26 02:55:01;;;;;;;2.63;0.50;;;13.70;62.20;;;;;;4993659;28;20026;-48
2021/01/26 02:57:53;;;;;;;2.90;0.73;;;13.60;62.10;;;;;;4993898;28;20090;-47
2021/01/26 03:00:28;;;;;;;1.23;0.75;;;13.70;62.20;;;;;;4992939;28;20404;-47
2021/01/26 03:03:08;;;;;;;2.00;0.65;;;13.60;62.20;;;;;;4993917;28;20061;-47
2021/01/26 03:06:12;;;;;;;2.23;0.60;;;13.60;62.10;;;;;;4993907;28;20093;-48
2021/01/26 03:09:02;;;;;;;2.90;0.82;;;13.60;62.10;;;;;;4992934;28;20132;-47
2021/01/26 03:11:38;;;;;;;5.07;1.02;;;13.60;62.10;;;;;;4982869;28;20089;-47
2021/01/26 03:14:18;;;;;;;2.40;0.82;;;13.60;62.10;;;;;;4976003;28;20114;-47
2021/01/26 03:16:49;;;;;;;3.72;1.08;;;13.50;62.00;;;;;;4993524;28;20085;-48
2021/01/26 03:19:29;;;;;;;2.40;0.80;;;13.60;62.10;;;;;;4993161;28;20026;-48
2021/01/26 03:22:02;;;;;;;4.10;1.25;;;13.40;62.00;;;;;;4992956;28;20031;-48
2021/01/26 03:24:36;;;;;;;4.70;1.05;;;13.50;62.00;;;;;;4993445;28;20027;-48
2021/01/26 03:27:08;;;;;;;2.35;0.90;;;13.60;62.40;;;;;;4993010;28;20037;-49
2021/01/26 03:29:36;;;;;;;4.82;1.17;;;13.70;62.70;;;;;;4993373;28;20037;-49
2021/01/26 03:32:06;;;;;;;2.08;0.75;;;13.70;62.50;;;;;;4993173;28;20026;-49
2021/01/26 03:34:33;;;;;;;3.70;1.15;;;13.80;62.60;;;;;;4992898;28;20469;-47
2021/01/26 03:37:00;;;;;;;3.80;1.25;;;13.90;62.90;;;;;;4993216;28;20433;-47
2021/01/26 03:39:26;;;;;;;2.17;0.90;;;13.80;62.70;;;;;;4993156;28;20046;-48
2021/01/26 03:41:52;;;;;;;2.80;1.17;;;14.00;62.60;;;;;;4993140;28;20065;-48
2021/01/26 03:44:18;;;;;;;2.20;1.10;;;14.10;62.50;;;;;;4993077;28;20121;-46
2021/01/26 03:46:46;;;;;;;3.10;1.00;;;14.10;62.40;;;;;;4992989;28;20036;-49
2021/01/26 03:49:34;;;;;;;3.30;1.13;;;14.10;62.40;;;;;;4992940;28;20073;-48
2021/01/26 03:52:29;;;;;;;4.78;1.40;;;14.10;62.40;;;;;;4975273;28;20054;-48
2021/01/26 03:55:08;;;;;;;3.25;0.80;;;14.10;62.40;;;;;;4979649;28;20038;-48
2021/01/26 03:58:15;;;;;;;2.93;1.40;;;14.10;62.40;;;;;;4992811;28;20030;-49
2021/01/26 04:00:59;;;;;;;2.90;1.27;;;14.10;62.30;;;;;;4989429;28;20030;-47
2021/01/26 04:03:35;;;;;;;4.28;0.85;;;14.00;62.40;;;;;;4992683;28;20113;-47
2021/01/26 04:06:22;;;;;;;3.25;1.00;;;14.00;62.20;;;;;;4992843;28;20033;-49
2021/01/26 04:08:54;;;;;;;3.88;1.20;;;14.00;62.20;;;;;;4973149;28;20101;-47
2021/01/26 04:11:28;;;;;;;3.50;1.17;;;13.90;62.10;;;;;;4973530;28;20102;-48
2021/01/26 04:14:12;;;;;;;3.78;1.15;;;13.90;62.20;;;;;;4973182;28;20039;-48
2021/01/26 04:17:08;;;;;;;2.45;0.60;;;13.90;62.10;;;;;;4973476;28;20404;-48
2021/01/26 04:19:55;;;;;;;2.65;0.75;;;13.90;62.10;;;;;;4973341;28;20026;-48
2021/01/26 04:22:21;;;;;;;4.15;1.33;;;13.80;62.10;;;;;;4971927;28;20054;-48
2021/01/26 04:24:47;;;;;;;4.32;0.93;;;13.80;62.10;;;;;;4973512;28;20019;-47
2021/01/26 04:27:19;;;;;;;3.05;0.98;;;13.80;62.00;;;;;;4973294;28;20473;-50
2021/01/26 04:29:45;;;;;;;1.98;0.88;;;13.80;62.00;;;;;;4973430;28;20133;-48
2021/01/26 04:32:10;;;;;;;4.63;1.10;;;13.70;61.90;;;;;;4974176;28;20109;-47
2021/01/26 04:34:36;;;;;;;1.83;0.70;;;13.50;61.80;;;;;;4977246;28;20051;-47
2021/01/26 04:37:02;;;;;;;5.55;1.15;;;13.70;61.90;;;;;;4959653;28;20106;-48
2021/01/26 04:39:27;;;;;;;3.22;1.10;;;13.70;61.90;;;;;;4976908;28;20030;-47
2021/01/26 04:42:00;;;;;;;2.90;1.05;;;13.70;61.80;;;;;;4976971;28;20066;-47
2021/01/26 04:44:43;;;;;;;3.83;1.42;;;13.60;81.70;;;;;;4976814;28;20027;-48
2021/01/26 04:47:28;;;;;;;2.33;0.95;;;13.70;61.90;;;;;;4976919;28;20065;-47
2021/01/26 04:49:59;;;;;;;3.05;1.00;;;13.70;62.00;;;;;;4959388;28;20044;-48
2021/01/26 04:52:52;;;;;;;2.45;1.38;;;13.70;61.90;;;;;;4976731;28;20034;-51
2021/01/26 04:55:41;;;;;;;2.85;0.70;;;13.70;62.00;;;;;;4976965;28;20019;-47
2021/01/26 04:58:33;;;;;;;1.83;0.73;;;13.70;62.00;;;;;;4968565;28;20030;-48
2021/01/26 05:01:25;;;;;;;1.88;0.65;;;13.70;61.80;;;;;;4976936;28;20135;-48
2021/01/26 05:04:05;;;;;;;3.30;0.77;;;13.70;61.90;;;;;;4976385;28;20027;-47
2021/01/26 05:06:46;;;;;;;2.50;1.20;;;13.70;61.90;;;;;;4980383;28;20026;-47
2021/01/26 05:09:16;;;;;;;2.58;0.93;;;13.70;61.80;;;;;;4978168;28;20559;-48
2021/01/26 05:11:44;;;;;;;4.10;0.93;;;13.70;61.70;;;;;;4995692;28;20061;-48
2021/01/26 05:14:21;;;;;;;2.83;1.15;;;13.80;61.90;;;;;;4995933;28;20018;-48
2021/01/26 05:17:00;;;;;;;3.45;1.10;;;13.80;61.80;;;;;;4995585;28;20527;-48
2021/01/26 05:19:38;;;;;;;2.92;0.90;;;13.80;61.80;;;;;;4995716;28;20478;-48
2021/01/26 05:22:27;;;;;;;1.00;0.60;;;13.80;61.70;;;;;;4995715;28;20053;-45
2021/01/26 05:25:06;;;;;;;3.57;1.07;;;13.80;61.70;;;;;;4995503;28;20053;-44
2021/01/26 05:27:32;;;;;;;3.05;1.17;;;13.80;61.60;;;;;;4977855;28;20026;-46
2021/01/26 05:29:59;;;;;;;2.08;0.82;;;13.90;61.70;;;;;;4995353;28;20026;-46
2021/01/26 05:32:25;;;;;;;1.35;0.82;;;13.90;61.60;;;;;;4995576;28;20018;-46
2021/01/26 05:34:53;;;;;;;1.92;0.80;;;13.70;61.60;;;;;;4995730;28;20018;-46
2021/01/26 05:37:20;;;;;;;1.90;0.60;;;13.90;61.80;;;;;;4995124;28;20045;-46
2021/01/26 05:39:59;;;;;;;4.20;1.02;;;13.90;61.90;;;;;;4995518;28;20034;-46
2021/01/26 05:42:25;;;;;;;2.85;0.90;;;14.00;61.80;;;;;;4995034;28;20027;-46
2021/01/26 05:45:05;;;;;;;2.08;0.98;;;14.00;61.80;;;;;;4994953;28;20027;-46
2021/01/26 05:47:34;;;;;;;3.80;0.82;;;14.00;61.80;;;;;;4995084;28;20037;-48
2021/01/26 05:50:03;;;;;;;2.08;0.60;;;14.00;61.80;;;;;;4995249;28;20026;-46
2021/01/26 05:52:39;;;;;;;4.35;1.30;;;14.00;61.90;;;;;;4995022;28;20062;-47
2021/01/26 05:55:17;;;;;;;1.92;0.85;;;13.70;61.90;;;;;;4994787;28;20026;-47
2021/01/26 05:57:44;;;;;;;1.80;0.88;;;13.90;62.10;;;;;;4995122;28;20037;-47
2021/01/26 06:00:25;;;;;;;3.22;0.93;;;13.90;62.20;;;;;;4994994;28;20392;-46
2021/01/26 06:03:06;;;;;;;2.58;0.90;;;13.90;62.10;;;;;;4995063;28;20034;-46
2021/01/26 06:05:32;;;;;;;1.40;0.60;;;13.90;62.10;;;;;;4994969;28;20026;-46
2021/01/26 06:08:09;;;;;;;2.70;0.63;;;13.90;62.20;;;;;;4995907;28;20051;-46
2021/01/26 06:10:36;;;;;;;3.85;1.00;;;13.90;62.20;;;;;;4994836;28;20026;-46
2021/01/26 06:13:03;;;;;;;1.88;1.00;;;14.00;62.30;;;;;;4994582;28;20096;-47
2021/01/26 06:15:35;;;;;;;1.50;0.65;;;14.10;62.30;;;;;;4994493;28;20486;-47
2021/01/26 06:18:19;;;;;;;1.90;0.80;;;14.30;62.30;;;;;;4994574;28;20529;-47
2021/01/26 06:21:11;;;;;;;2.35;0.73;;;14.30;62.10;;;;;;4994654;28;20023;-47
2021/01/26 06:23:38;;;;;;;4.38;0.75;;;14.40;62.10;;;;;;4994562;28;20018;-46
2021/01/26 06:26:09;;;;;;;1.55;0.73;;;14.50;62.10;;;;;;4994484;28;20030;-49
2021/01/26 06:28:56;;;;;;;1.58;0.60;;;14.50;62.00;;;;;;4994075;28;20104;-47
2021/01/26 06:31:24;;;;;;;2.35;1.02;;;14.60;61.80;;;;;;4994403;28;20432;-46
2021/01/26 06:33:59;;;;;;;4.45;0.95;;;14.60;61.60;;;;;;4994297;28;20358;-45
2021/01/26 06:36:27;;;;;;;2.35;1.00;;;14.70;61.60;;;;;;4993960;28;20022;-45
2021/01/26 06:39:21;;;;;;;1.67;0.80;;;14.70;61.50;;;;;;4994224;28;20037;-46
2021/01/26 06:41:46;;;;;;;3.08;1.08;;;14.70;61.40;;;;;;4993887;28;20473;-45
2021/01/26 06:44:29;;;;;;;1.80;0.80;;;14.70;61.30;;;;;;4976395;28;20035;-47
2021/01/26 06:47:30;;;;;;;2.13;0.82;;;14.70;61.20;;;;;;4993858;28;20491;-46
2021/01/26 06:50:17;;;;;;;2.00;0.68;;;14.80;61.20;;;;;;4993828;28;20034;-48
2021/01/26 06:53:17;;;;;;;1.25;0.85;;;14.80;61.10;;;;;;4993991;28;20459;-44
2021/01/26 06:55:46;;;;;;;;;;;14.80;61.10;;;;;;4923405;28;20059;-45
2021/01/26 06:58:44;;;;;;;1.98;0.63;;;14.80;60.90;;;;;;4993697;28;19952;-46
2021/01/26 07:01:32;;;;;;;4.35;0.93;;;14.80;60.80;;;;;;4993882;28;20030;-44
2021/01/26 07:04:25;;;;;;;6.35;0.77;;;14.80;61.10;;;;;;4993822;28;20511;-45
2021/01/26 07:07:40;;;;;;;2.90;1.13;;;14.80;61.10;;;;;;4994727;28;20124;-46
2021/01/26 07:10:30;;;;;;;3.20;0.50;;;14.80;61.00;;;;;;4993414;28;20050;-48
2021/01/26 07:13:08;;;;;;;2.72;1.00;;;14.70;61.00;;;;;;4992818;28;20037;-47
2021/01/26 07:15:38;;;;;;;3.45;0.85;;;14.70;61.30;;;;;;4991955;28;20030;-45
2021/01/26 07:18:17;;;;;;;4.47;1.15;;;14.70;61.40;;;;;;4992478;28;20093;-44
2021/01/26 07:21:01;;;;;;;6.72;1.02;;;14.70;61.30;;;;;;4993533;28;20019;-46
2021/01/26 07:23:56;;;;;;;4.95;1.08;;;14.70;61.20;;;;;;4993303;28;20421;-48
2021/01/26 07:26:37;;;;;;;8.43;2.10;;;14.70;61.40;;;;;;4975587;28;20037;-47
2021/01/26 07:29:27;;;;;;;5.60;1.10;;;14.70;61.30;;;;;;4992937;28;20039;-49
2021/01/26 07:32:02;;;;;;;4.53;1.17;;;14.70;61.20;;;;;;4992798;28;20075;-47
2021/01/26 07:34:36;;;;;;;9.00;0.98;;;14.70;61.10;;;;;;4993215;28;20097;-46
2021/01/26 07:37:21;;;;;;;3.40;1.00;;;14.50;60.90;;;;;;4993177;28;20022;-47
2021/01/26 07:39:58;;;;;;;8.98;0.90;;;14.70;61.10;;;;;;4992898;28;20021;-49
2021/01/26 07:42:30;;;;;;;3.42;0.98;;;14.70;61.20;;;;;;4992927;28;20100;-46
2021/01/26 07:45:04;;;;;;;3.53;0.95;;;14.70;61.20;;;;;;4992787;28;20481;-47
2021/01/26 07:47:43;;;;;;;4.85;0.85;;;14.70;61.30;;;;;;4992927;28;20026;-46
2021/01/26 07:50:32;;;;;;;2.22;0.80;;;14.60;61.30;;;;;;4993025;28;20066;-47
2021/01/26 07:53:20;;;;;;;4.05;0.90;;;14.40;61.00;;;;;;4992868;28;20081;-46
2021/01/26 07:55:50;;;;;;;3.72;1.02;;;14.60;61.10;;;;;;4992432;28;20053;-48
2021/01/26 07:58:16;;;;;;;4.70;0.85;;;14.60;81.00;;;;;;4992503;28;20054;-47
2021/01/26 08:00:51;;;;;;;4.22;0.77;;;14.60;61.20;;;;;;4992560;28;20069;-49
2021/01/26 08:03:26;;;;;;;1.75;0.60;;;14.50;61.10;;;;;;4992338;28;20057;-46
2021/01/26 08:05:59;;;;;;;4.18;1.10;;;14.50;61.10;;;;;;4992307;28;20026;-49
2021/01/26 08:08:33;;;;;;;2.20;1.02;;;14.50;61.20;;;;;;4993573;28;20091;-46
2021/01/26 08:11:20;;;;;;;2.22;0.90;;;14.50;61.20;;;;;;4992389;28;20041;-47
2021/01/26 08:14:06;;;;;;;1.70;0.80;;;14.40;61.00;;;;;;4992516;28;20085;-47
2021/01/26 08:16:43;;;;;;;3.50;0.90;;;15.00;61.30;;;;;;4992561;28;20058;-46
2021/01/26 08:19:31;;;;;;;2.25;0.70;;;14.50;61.00;;;;;;4984744;28;20480;-46
2021/01/26 08:21:58;;;;;;;3.83;0.80;;;14.50;60.80;;;;;;4992434;28;20030;-47
2021/01/26 08:24:34;;;;;;;1.25;0.70;;;14.60;60.70;;;;;;4992565;28;20026;-45
2021/01/26 08:27:28;;;;;;;1.98;0.85;;;14.60;60.60;;;;;;4991722;28;20143;-46
2021/01/26 08:30:20;;;;;;;3.63;0.88;;;14.70;60.20;;;;;;4983510;28;20413;-45
2021/01/26 08:33:04;;;;;;;0.70;0.50;;;14.80;60.00;;;;;;4990372;28;20026;-46
2021/01/26 08:35:36;;;;;;;4.25;0.80;;;14.90;60.00;;;;;;4990424;28;20090;-47
2021/01/26 08:38:03;;;;;;;1.98;0.52;;;14.90;59.80;;;;;;4990251;28;20378;-47
2021/01/26 08:40:28;;;;;;;5.20;1.20;;;15.00;59.70;;;;;;4990209;28;20061;-45
2021/01/26 08:43:05;;;;;;;2.20;0.73;;;15.00;59.60;;;;;;4990433;28;20026;-45
2021/01/26 08:45:32;;;;;;;3.58;0.90;;;14.90;59.60;;;;;;4991904;28;20026;-47
2021/01/26 08:48:00;;;;;;;1.42;0.47;;;15.00;59.60;;;;;;4992327;28;20042;-45
2021/01/26 08:50:36;;;;;;;2.78;0.80;;;15.00;59.60;;;;;;4992157;28;20031;-45
2021/01/26 08:53:17;;;;;;;2.20;0.50;;;15.00;59.60;;;;;;4992394;28;20030;-46
2021/01/26 08:55:46;;;;;;;2.80;0.75;;;15.00;59.60;;;;;;4991938;28;20133;-46
2021/01/26 08:58:34;;;;;;;1.13;0.77;;;14.90;79.40;;;;;;4991913;28;20026;-46
2021/01/26 09:01:00;;;;;;;1.65;0.85;;;14.90;59.70;;;;;;4974489;28;20030;-45
2021/01/26 09:03:33;;;;;;;1.30;0.60;;;14.90;59.80;;;;;;4991981;28;20030;-45
2021/01/26 09:06:10;;;;;;;3.63;0.50;;;14.90;59.80;;;;;;4991808;28;20027;-45
2021/01/26 09:08:41;;;;;;;1.42;0.80;;;14.90;59.80;;;;;;4992866;28;20050;-44
2021/01/26 09:11:29;;;;;;;2.47;0.45;;;14.70;59.90;;;;;;4991847;28;20034;-47
2021/01/26 09:14:22;;;;;;;2.20;0.50;;;14.80;60.00;;;;;;4991771;28;20029;-44
2021/01/26 09:16:54;;;;;;;3.08;0.63;;;14.70;60.00;;;;;;4991747;28;20580;-44
2021/01/26 09:19:43;;;;;;;5.93;0.70;;;14.70;59.70;;;;;;4994253;28;20077;-44
2021/01/26 09:22:12;;;;;;;3.08;0.80;;;14.80;59.50;;;;;;4995393;28;20027;-44
2021/01/26 09:24:38;;;;;;;2.60;0.45;;;15.00;79.40;;;;;;4995574;28;20014;-44
2021/01/26 09:27:26;;;;;;;1.73;0.63;;;14.80;59.40;;;;;;4995567;28;20026;-44
2021/01/26 09:30:25;;;;;;;1.75;0.55;;;14.80;59.40;;;;;;4994379;28;20089;-44
2021/01/26 09:33:12;;;;;;;3.60;0.65;;;14.80;59.40;;;;;;4991558;28;20038;-44
2021/01/26 09:35:43;;;;;;;2.83;0.68;;;14.80;59.30;;;;;;4977359;28;20031;-44
2021/01/26 09:38:24;;;;;;;2.50;0.68;;;14.80;59.30;;;;;;4995155;28;20018;-44
2021/01/26 09:41:12;;;;;;;2.30;0.60;;;14.80;59.50;;;;;;4995231;28;20019;-45
2021/01/26 09:43:40;;;;;;;4.25;0.90;;;14.80;59.50;;;;;;4994911;28;20473;-42
2021/01/26 09:46:11;;;;;;;3.60;0.65;;;14.80;59.40;;;;;;4994852;28;20038;-43
2021/01/26 09:48:46;;;;;;;1.00;0.40;;;14.80;59.70;;;;;;4994703;28;20046;-44
2021/01/26 09:51:15;;;;;;;1.10;0.63;;;14.80;59.30;;;;;;4994808;28;20022;-46
2021/01/26 09:53:44;;;;;;;2.38;0.80;;;14.80;59.50;;;;;;4994747;28;20109;-44
2021/01/26 09:56:10;;;;;;;2.20;0.68;;;14.70;59.00;;;;;;4994943;28;20050;-42
2021/01/26 09:58:37;;;;;;;3.25;0.73;;;14.70;58.90;;;;;;4994857;28;20024;-44
2021/01/26 10:01:04;;;;;;;1.83;0.60;;;14.70;58.80;;;;;;4994698;28;20026;-47
2021/01/26 10:03:31;;;;;;;2.90;0.90;;;14.80;58.90;;;;;;4994746;28;20033;-44
2021/01/26 10:05:59;;;;;;;3.67;0.85;;;14.80;58.80;;;;;;4994489;28;20539;-43
2021/01/26 10:08:30;;;;;;;1.45;0.50;;;14.70;58.60;;;;;;4995604;28;20088;-45
2021/01/26 10:11:06;;;;;;;0.98;0.43;;;14.80;58.70;;;;;;4994591;28;20058;-45
2021/01/26 10:13:35;;;;;;;4.45;0.50;;;14.70;58.60;;;;;;4994706;28;20059;-45
2021/01/26 10:16:25;;;;;;;4.18;0.80;;;14.80;58.70;;;;;;4994348;28;20030;-44
2021/01/26 10:18:50;;;;;;;0.73;0.55;;;14.70;58.70;;;;;;4994335;28;20018;-43
2021/01/26 10:21:26;;;;;;;1.77;0.70;;;14.70;58.80;;;;;;4994220;28;20022;-44
2021/01/26 10:24:00;;;;;;;0.98;0.43;;;14.50;58.70;;;;;;4994276;28;20065;-44
2021/01/26 10:26:27;;;;;;;1.90;1.05;;;14.70;58.80;;;;;;4976609;28;20027;-45
2021/01/26 10:28:56;;;;;;;3.33;0.73;;;14.80;59.10;;;;;;4994149;28;20042;-44
2021/01/26 10:31:21;;;;;;;2.85;0.60;;;14.70;59.10;;;;;;4975644;28;20060;-46
2021/01/26 10:33:47;;;;;;;2.58;0.57;;;14.70;59.00;;;;;;4994596;28;20113;-46
2021/01/26 10:36:20;;;;;;;1.83;0.75;;;14.70;59.00;;;;;;4994179;28;20110;-43
2021/01/26 10:38:46;;;;;;;5.22;0.90;;;14.60;59.10;;;;;;4994138;28;20030;-44
2021/01/26 10:41:20;;;;;;;1.52;0.65;;;14.60;59.60;;;;;;4994228;28;20420;-45
2021/01/26 10:43:46;;;;;;;2.83;1.27;;;14.60;78.60;;;;;;4994131;28;20434;-46
2021/01/26 10:46:13;;;;;;;3.28;1.10;;;14.50;58.90;;;;;;4993805;28;20105;-44
2021/01/26 10:48:43;;;;;;;2.28;0.85;;;14.50;58.80;;;;;;4994141;28;20038;-45
2021/01/26 10:51:14;;;;;;;2.80;0.63;;;14.50;58.80;;;;;;4993968;28;20030;-45
2021/01/26 10:53:46;;;;;;;3.75;0.80;;;14.50;58.90;;;;;;4993787;28;20281;-45
2021/01/26 10:56:13;;;;;;;1.05;0.55;;;14.50;59.30;;;;;;4993847;28;20061;-45
2021/01/26 10:58:43;;;;;;;1.40;0.40;;;14.50;59.30;;;;;;4993734;28;20117;-44
2021/01/26 11:01:11;;;;;;;4.13;0.80;;;14.50;59.20;;;;;;4994009;28;20038;-45
2021/01/26 11:03:43;;;;;;;2.20;0.55;;;14.50;59.10;;;;;;4993547;28;20022;-44
2021/01/26 11:06:09;;;;;;;1.23;0.60;;;14.60;59.10;;;;;;4993127;28;20485;-45
2021/01/26 11:08:35;;;;;;;1.02;0.60;;;14.70;59.10;;;;;;4994167;28;20077;-45
2021/01/26 11:11:01;;;;;;;2.00;0.47;;;14.70;58.90;;;;;;4993320;28;20115;-44
2021/01/26 11:13:28;;;;;;;2.47;0.82;;;14.70;58.80;;;;;;4993118;28;20121;-45
2021/01/26 11:15:53;;;;;;;2.38;0.55;;;14.80;58.90;;;;;;4993452;28;20362;-44
2021/01/26 11:18:19;;;;;;;2.03;0.70;;;14.90;58.90;;;;;;4993133;28;20026;-46
2021/01/26 11:20:45;;;;;;;2.22;1.00;;;15.00;58.70;;;;;;4993321;28;20074;-43
2021/01/26 11:23:10;;;;;;;2.22;0.68;;;15.00;58.60;;;;;;4993235;28;20029;-45
2021/01/26 11:25:37;;;;;;;2.70;0.60;;;15.00;58.70;;;;;;4993089;28;20477;-45
2021/01/26 11:28:04;;;;;;;2.75;0.70;;;15.00;59.30;;;;;;4993128;28;20031;-44
2021/01/26 11:30:30;;;;;;;1.85;0.60;;;15.10;58.60;;;;;;4993209;28;20491;-45
2021/01/26 11:32:56;;;;;;;1.95;0.50;;;15.10;58.70;;;;;;4993231;28;20015;-45
2021/01/26 11:35:25;;;;;;;0.82;0.52;;;14.80;58.60;;;;;;4993196;28;20420;-46
2021/01/26 11:37:51;;;;;;;1.95;0.50;;;15.10;58.80;;;;;;4992835;28;20113;-45
2021/01/26 11:40:18;;;;;;;1.30;0.60;;;15.00;58.90;;;;;;4992851;28;20078;-44
2021/01/26 11:42:43;;;;;;;0.82;0.40;;;15.00;59.00;;;;;;4992682;28;20057;-45
2021/01/26 11:45:14;;;;;;;2.03;0.63;;;14.90;59.00;;;;;;4993011;28;20058;-47
2021/01/26 11:47:39;;;;;;;2.40;0.70;;;14.90;59.10;;;;;;4975284;28;20504;-48
2021/01/26 11:50:12;;;;;;;1.88;0.60;;;14.90;59.20;;;;;;4992661;28;20038;-50
2021/01/26 11:52:38;;;;;;;1.30;0.45;;;14.80;59.20;;;;;;4992915;28;20041;-46
2021/01/26 11:55:06;;;;;;;1.20;0.40;;;14.80;59.20;;;;;;4993024;28;20369;-48
2021/01/26 11:57:38;;;;;;;2.08;0.63;;;14.90;79.10;;;;;;4992358;28;20485;-48
2021/01/26 12:00:07;;;;;;;2.05;0.60;;;14.70;59.40;;;;;;4992550;28;20034;-45
2021/01/26 12:02:32;;;;;;;0.85;0.43;;;14.70;59.30;;;;;;4992537;28;20034;-45
2021/01/26 12:04:58;;;;;;;1.20;0.60;;;14.70;59.20;;;;;;4992663;28;20027;-44
2021/01/26 12:07:23;;;;;;;2.13;0.60;;;14.50;59.10;;;;;;4993414;28;20045;-45
2021/01/26 12:09:49;;;;;;;3.83;0.77;;;14.60;59.20;;;;;;4992489;28;20105;-45
2021/01/26 12:12:14;;;;;;;1.80;0.50;;;14.60;59.20;;;;;;4992567;28;20138;-47
2021/01/26 12:14:40;;;;;;;1.08;0.60;;;14.60;59.10;;;;;;4992453;28;20023;-45
2021/01/26 12:17:05;;;;;;;1.15;0.40;;;14.60;59.30;;;;;;4992656;28;20034;-46
2021/01/26 12:19:31;;;;;;;1.95;0.47;;;14.50;59.20;;;;;;4992650;28;20396;-47
2021/01/26 12:21:57;;;;;;;1.85;0.68;;;14.50;59.30;;;;;;4992662;28;20022;-48
2021/01/26 12:24:22;;;;;;;2.55;0.63;;;14.50;59.30;;;;;;4992528;28;20535;-47
2021/01/26 12:26:48;;;;;;;2.95;0.77;;;14.50;59.40;;;;;;4974855;28;20381;-47
2021/01/26 12:29:14;;;;;;;1.63;0.55;;;14.50;59.40;;;;;;4992348;28;20085;-47
2021/01/26 12:31:39;;;;;;;1.65;0.52;;;14.40;59.40;;;;;;4992667;28;20435;-47
2021/01/26 12:34:05;;;;;;;1.27;0.55;;;14.50;59.60;;;;;;4992515;28;20508;-48
2021/01/26 12:36:31;;;;;;;2.67;0.95;;;14.40;59.50;;;;;;4992051;28;20358;-48
2021/01/26 12:38:56;;;;;;;1.30;0.50;;;14.40;59.60;;;;;;4992089;28;20022;-48
2021/01/26 12:41:22;;;;;;;1.52;0.55;;;14.40;59.60;;;;;;4992577;28;20366;-50
2021/01/26 12:43:47;;;;;;;1.05;0.50;;;14.40;59.70;;;;;;4992133;28;20053;-47
2021/01/26 12:46:13;;;;;;;1.48;0.50;;;14.30;59.70;;;;;;4992538;28;20022;-48
2021/01/26 12:48:39;;;;;;;3.15;0.50;;;14.30;59.80;;;;;;4992336;28;20097;-48
2021/01/26 12:51:04;;;;;;;0.50;0.35;;;14.30;59.80;;;;;;4992396;28;20069;-47
2021/01/26 12:53:30;;;;;;;1.65;0.60;;;14.30;59.80;;;;;;4993760;28;20051;-47
2021/01/26 12:55:56;;;;;;;3.28;0.65;;;14.30;59.80;;;;;;4995912;28;20022;-48
2021/01/26 12:58:21;;;;;;;2.70;0.75;;;14.30;59.80;;;;;;4995816;28;20053;-47
2021/01/26 13:00:47;;;;;;;1.92;0.80;;;14.40;59.70;;;;;;4996030;28;20026;-46
2021/01/26 13:03:13;;;;;;;1.75;0.55;;;14.40;59.50;;;;;;4995781;28;20023;-47
2021/01/26 13:05:39;;;;;;;0.90;0.45;;;14.50;59.70;;;;;;4995822;28;20029;-48
2021/01/26 13:08:05;;;;;;;2.58;0.50;;;14.60;59.50;;;;;;4996660;28;20054;-49
2021/01/26 13:10:31;;;;;;;1.05;0.60;;;14.90;59.00;;;;;;4995687;28;20385;-48
2021/01/26 13:12:58;;;;;;;1.17;0.55;;;15.50;58.60;;;;;;4995631;28;20019;-49
2021/01/26 13:15:25;;;;;;;0.68;0.20;;;15.40;57.90;;;;;;4995847;28;20040;-47
2021/01/26 13:17:52;;;;;;;1.15;0.55;;;15.70;58.20;;;;;;4995681;28;20390;-47
2021/01/26 13:20:18;;;;;;;1.40;0.60;;;15.90;57.20;;;;;;4995193;28;20081;-47